Time,TemperatureF,DewpointF,PressureIn,WindDirection,WindDirectionDegrees,WindSpeedMPH,WindSpeedGustMPH,Humidity,HourlyPrecipIn,Conditions,Clouds,dailyrainin,SolarRadiationWatts/m^2,SoftwareType,DateUTC
2013-06-10 00:02:00,79.0,27.0,-100.00,South,170,12.0,13.0,14,-99.99,,,-99.99,0.000000,,2013-06-10 06:02:00,
2013-06-10 00:12:00,80.0,27.0,-100.00,South,177,10.0,12.0,14,-99.99,,,-99.99,0.000000,,2013-06-10 06:12:00,
2013-06-10 00:22:00,79.0,27.0,-100.00,South,175,8.0,9.0,14,-99.99,,,-99.99,0.000000,,2013-06-10 06:22:00,
2013-06-10 00:32:00,79.0,27.0,-100.00,South,172,9.0,11.0,14,-99.99,,,-99.99,0.000000,,2013-06-10 06:32:00,
2013-06-10 00:42:00,78.0,27.0,-100.00,SSE,157,9.0,11.0,15,-99.99,,,-99.99,0.000000,,2013-06-10 06:42:00,
2013-06-10 00:52:00,81.0,26.0,-100.00,SSE,161,14.0,18.0,13,-99.99,,,-99.99,0.000000,,2013-06-10 06:52:00,
2013-06-10 01:02:00,80.0,27.0,-100.00,SSE,159,9.0,11.0,13,-99.99,,,-99.99,0.000000,,2013-06-10 07:02:00,
2013-06-10 01:12:00,80.0,27.0,-100.00,SSE,159,9.0,11.0,13,-99.99,,,-99.99,0.000000,,2013-06-10 07:12:00,
2013-06-10 01:21:00,82.0,25.0,-100.00,South,171,12.0,14.0,12,-99.99,,,-99.99,0.000000,,2013-06-10 07:21:00,
2013-06-10 01:32:00,84.0,25.0,-100.00,South,182,19.0,23.0,11,-99.99,,,-99.99,0.000000,,2013-06-10 07:32:00,
2013-06-10 01:42:00,83.0,25.0,-100.00,South,175,15.0,18.0,11,-99.99,,,-99.99,0.000000,,2013-06-10 07:42:00,
2013-06-10 01:52:00,82.0,24.0,-100.00,South,169,13.0,18.0,12,-99.99,,,-99.99,0.000000,,2013-06-10 07:52:00,
2013-06-10 02:02:00,81.0,24.0,-100.00,South,171,13.0,16.0,12,-99.99,,,-99.99,0.000000,,2013-06-10 08:02:00,
2013-06-10 02:12:00,80.0,24.0,-100.00,SSE,162,12.0,16.0,12,-99.99,,,-99.99,0.000000,,2013-06-10 08:12:00,
2013-06-10 02:21:00,81.0,23.0,-100.00,SE,145,13.0,15.0,11,-99.99,,,-99.99,0.000000,,2013-06-10 08:21:00,
2013-06-10 02:32:00,78.0,30.0,-100.00,ESE,112,18.0,20.0,17,-99.99,,,-99.99,0.000000,,2013-06-10 08:32:00,
2013-06-10 02:42:00,78.0,30.0,-100.00,ESE,115,15.0,19.0,16,-99.99,,,-99.99,0.000000,,2013-06-10 08:42:00,
2013-06-10 02:52:00,78.0,27.0,-100.00,ESE,120,16.0,20.0,15,-99.99,,,-99.99,0.000000,,2013-06-10 08:52:00,
2013-06-10 03:02:00,79.0,24.0,-100.00,SSE,150,14.0,16.0,13,-99.99,,,-99.99,0.000000,,2013-06-10 09:02:00,
2013-06-10 03:11:00,81.0,23.0,-100.00,South,170,17.0,20.0,11,-99.99,,,-99.99,0.000000,,2013-06-10 09:11:00,
2013-06-10 03:21:00,81.0,23.0,-100.00,South,175,16.0,20.0,11,-99.99,,,-99.99,0.000000,,2013-06-10 09:21:00,
2013-06-10 03:32:00,81.0,23.0,-100.00,South,174,18.0,21.0,11,-99.99,,,-99.99,0.000000,,2013-06-10 09:32:00,
2013-06-10 03:42:00,81.0,23.0,-100.00,South,176,17.0,20.0,11,-99.99,,,-99.99,0.000000,,2013-06-10 09:42:00,
2013-06-10 03:53:00,81.0,23.0,-100.00,South,174,20.0,22.0,11,-99.99,,,-99.99,0.000000,,2013-06-10 09:53:00,
2013-06-10 04:02:00,81.0,23.0,-100.00,South,172,19.0,26.0,11,-99.99,,,-99.99,0.000000,,2013-06-10 10:02:00,
2013-06-10 04:12:00,81.0,22.0,-100.00,South,173,19.0,23.0,11,-99.99,,,-99.99,0.000000,,2013-06-10 10:12:00,
2013-06-10 04:22:00,81.0,22.0,-100.00,South,177,19.0,26.0,11,-99.99,,,-99.99,0.000000,,2013-06-10 10:22:00,
2013-06-10 04:33:00,81.0,22.0,-100.00,South,182,15.0,21.0,11,-99.99,,,-99.99,0.000000,,2013-06-10 10:33:00,
2013-06-10 04:42:00,81.0,22.0,-100.00,South,174,18.0,23.0,11,-99.99,,,-99.99,0.000000,,2013-06-10 10:42:00,
2013-06-10 04:52:00,81.0,22.0,-100.00,South,175,19.0,25.0,11,-99.99,,,-99.99,0.000000,,2013-06-10 10:52:00,
2013-06-10 05:02:00,80.0,22.0,-100.00,South,175,20.0,24.0,11,-99.99,,,-99.99,0.000000,,2013-06-10 11:02:00,
2013-06-10 05:12:00,80.0,22.0,-100.00,SSE,160,13.0,23.0,11,-99.99,,,-99.99,0.000000,,2013-06-10 11:12:00,
2013-06-10 05:22:00,80.0,22.0,-100.00,SSE,158,19.0,27.0,11,-99.99,,,-99.99,0.000000,,2013-06-10 11:22:00,
2013-06-10 05:32:00,78.0,27.0,-100.00,ESE,121,15.0,19.0,15,-99.99,,,-99.99,0.000000,,2013-06-10 11:32:00,
2013-06-10 05:42:00,75.0,30.0,-100.00,ESE,115,15.0,19.0,19,-99.99,,,-99.99,0.000000,,2013-06-10 11:42:00,
2013-06-10 05:52:00,73.0,33.0,-100.00,ESE,110,19.0,23.0,22,-99.99,,,-99.99,0.000000,,2013-06-10 11:52:00,
2013-06-10 06:02:00,73.0,33.0,-100.00,ESE,122,15.0,19.0,22,-99.99,,,-99.99,0.040000,,2013-06-10 12:02:00,
2013-06-10 06:12:00,74.0,22.0,-100.00,SE,145,14.0,19.0,14,-99.99,,,-99.99,0.420000,,2013-06-10 12:12:00,
2013-06-10 06:22:00,77.0,23.0,-100.00,SSE,154,15.0,20.0,13,-99.99,,,-99.99,2.380000,,2013-06-10 12:22:00,
2013-06-10 06:32:00,78.0,22.0,-100.00,SSE,155,15.0,22.0,12,-99.99,,,-99.99,10.630000,,2013-06-10 12:32:00,
2013-06-10 06:42:00,78.0,22.0,-100.00,SSE,154,18.0,21.0,12,-99.99,,,-99.99,20.990000,,2013-06-10 12:42:00,
2013-06-10 06:52:00,77.0,23.0,-100.00,SSE,153,14.0,18.0,13,-99.99,,,-99.99,31.299999,,2013-06-10 12:52:00,
2013-06-10 07:02:00,77.0,23.0,-100.00,SSE,154,13.0,18.0,13,-99.99,,,-99.99,80.300003,,2013-06-10 13:02:00,
2013-06-10 07:11:00,79.0,22.0,-100.00,SSE,151,18.0,22.0,12,-99.99,,,-99.99,123.800003,,2013-06-10 13:11:00,
2013-06-10 07:22:00,80.0,22.0,-100.00,SE,139,16.0,20.0,11,-99.99,,,-99.99,151.300003,,2013-06-10 13:22:00,
2013-06-10 07:32:00,81.0,21.0,-100.00,SSE,156,17.0,23.0,10,-99.99,,,-99.99,173.800003,,2013-06-10 13:32:00,
2013-06-10 07:42:00,81.0,20.0,-100.00,South,172,18.0,23.0,10,-99.99,,,-99.99,205.699997,,2013-06-10 13:42:00,
2013-06-10 07:52:00,82.0,19.0,-100.00,South,174,21.0,23.0,9,-99.99,,,-99.99,240.500000,,2013-06-10 13:52:00,
2013-06-10 08:02:00,82.0,20.0,-100.00,South,170,19.0,25.0,10,-99.99,,,-99.99,285.200012,,2013-06-10 14:02:00,
2013-06-10 08:12:00,82.0,21.0,-100.00,SSE,161,18.0,29.0,10,-99.99,,,-99.99,325.600006,,2013-06-10 14:12:00,
2013-06-10 08:32:00,83.0,21.0,-100.00,South,171,25.0,30.0,9,-99.99,,,-99.99,381.799988,,2013-06-10 14:32:00,
2013-06-10 08:42:00,83.0,21.0,-100.00,South,171,26.0,31.0,10,-99.99,,,-99.99,405.100006,,2013-06-10 14:42:00,
2013-06-10 08:52:00,83.0,22.0,-100.00,South,170,24.0,31.0,10,-99.99,,,-99.99,440.000000,,2013-06-10 14:52:00,
2013-06-10 09:02:00,83.0,22.0,-100.00,South,176,26.0,29.0,10,-99.99,,,-99.99,477.799988,,2013-06-10 15:02:00,
2013-06-10 09:12:00,83.0,22.0,-100.00,South,176,26.0,29.0,10,-99.99,,,-99.99,477.799988,,2013-06-10 15:12:00,
2013-06-10 09:21:00,84.0,23.0,-100.00,South,177,22.0,31.0,10,-99.99,,,-99.99,549.799988,,2013-06-10 15:21:00,
2013-06-10 09:32:00,84.0,22.0,-100.00,South,182,24.0,28.0,10,-99.99,,,-99.99,586.500000,,2013-06-10 15:32:00,
2013-06-10 09:43:00,85.0,21.0,-100.00,South,176,22.0,26.0,9,-99.99,,,-99.99,633.299988,,2013-06-10 15:43:00,
2013-06-10 09:53:00,86.0,21.0,-100.00,South,182,23.0,27.0,9,-99.99,,,-99.99,637.500000,,2013-06-10 15:53:00,
2013-06-10 10:02:00,85.0,20.0,-100.00,South,178,22.0,27.0,9,-99.99,,,-99.99,635.900024,,2013-06-10 16:02:00,
2013-06-10 10:12:00,85.0,16.0,-100.00,South,188,25.0,27.0,7,-99.99,,,-99.99,447.299988,,2013-06-10 16:12:00,
2013-06-10 10:22:00,86.0,14.0,-100.00,SSW,197,25.0,31.0,6,-99.99,,,-99.99,599.500000,,2013-06-10 16:22:00,
2013-06-10 10:33:00,86.0,13.0,-100.00,SSW,201,23.0,28.0,6,-99.99,,,-99.99,730.799988,,2013-06-10 16:33:00,
2013-06-10 10:42:00,87.0,16.0,-100.00,SSW,200,20.0,22.0,7,-99.99,,,-99.99,830.000000,,2013-06-10 16:42:00,
2013-06-10 10:52:00,86.0,18.0,-100.00,SSW,195,20.0,31.0,8,-99.99,,,-99.99,501.600006,,2013-06-10 16:52:00,
2013-06-10 11:03:00,86.0,18.0,-100.00,SSW,195,20.0,31.0,8,-99.99,,,-99.99,501.600006,,2013-06-10 17:03:00,
2013-06-10 11:14:00,88.0,13.0,-100.00,South,181,22.0,30.0,6,-99.99,,,-99.99,898.000000,,2013-06-10 17:14:00,
2013-06-10 11:26:00,88.0,17.0,-100.00,South,183,21.0,28.0,7,-99.99,,,-99.99,947.000000,,2013-06-10 17:26:00,
2013-06-10 11:38:00,90.0,12.0,-100.00,SSW,199,21.0,26.0,5,-99.99,,,-99.99,931.000000,,2013-06-10 17:38:00,
2013-06-10 11:48:00,89.0,11.0,-100.00,SW,215,23.0,25.0,5,-99.99,,,-99.99,937.000000,,2013-06-10 17:48:00,
2013-06-10 11:57:00,89.0,14.0,-100.00,SW,218,21.0,26.0,6,-99.99,,,-99.99,963.000000,,2013-06-10 17:57:00,
2013-06-10 12:07:00,89.0,13.0,-100.00,SSW,201,22.0,28.0,5,-99.99,,,-99.99,984.000000,,2013-06-10 18:07:00,
2013-06-10 12:14:00,90.0,15.0,-100.00,SSW,205,26.0,31.0,6,-99.99,,,-99.99,1002.000000,,2013-06-10 18:14:00,
2013-06-10 12:24:00,90.0,13.0,-100.00,SSW,200,22.0,26.0,5,-99.99,,,-99.99,1032.000000,,2013-06-10 18:24:00,
2013-06-10 12:34:00,90.0,14.0,-100.00,SSW,199,24.0,27.0,5,-99.99,,,-99.99,1032.000000,,2013-06-10 18:34:00,
2013-06-10 12:48:00,91.0,13.0,-100.00,SSW,198,22.0,28.0,5,-99.99,,,-99.99,782.500000,,2013-06-10 18:48:00,
2013-06-10 12:55:00,90.0,15.0,-100.00,SSW,203,22.0,26.0,6,-99.99,,,-99.99,645.700012,,2013-06-10 18:55:00,
2013-06-10 13:02:00,89.0,16.0,-100.00,SSW,198,23.0,26.0,6,-99.99,,,-99.99,534.799988,,2013-06-10 19:02:00,
2013-06-10 13:12:00,90.0,18.0,-100.00,South,191,14.0,22.0,7,-99.99,,,-99.99,771.799988,,2013-06-10 19:12:00,
2013-06-10 13:22:00,90.0,18.0,-100.00,SSW,197,14.0,22.0,6,-99.99,,,-99.99,684.099976,,2013-06-10 19:22:00,
2013-06-10 13:32:00,90.0,18.0,-100.00,SSW,197,14.0,22.0,6,-99.99,,,-99.99,684.099976,,2013-06-10 19:32:00,
2013-06-10 13:42:00,90.0,20.0,-100.00,South,178,16.0,25.0,7,-99.99,,,-99.99,688.799988,,2013-06-10 19:42:00,
2013-06-10 13:52:00,90.0,16.0,-100.00,South,189,20.0,27.0,6,-99.99,,,-99.99,500.600006,,2013-06-10 19:52:00,
2013-06-10 14:02:00,90.0,15.0,-100.00,South,191,21.0,26.0,6,-99.99,,,-99.99,499.399994,,2013-06-10 20:02:00,
2013-06-10 14:12:00,90.0,12.0,-100.00,SSW,193,29.0,32.0,5,-99.99,,,-99.99,569.500000,,2013-06-10 20:12:00,
2013-06-10 14:22:00,91.0,15.0,-100.00,South,186,24.0,33.0,5,-99.99,,,-99.99,819.000000,,2013-06-10 20:22:00,
2013-06-10 14:32:00,93.0,15.0,-100.00,SW,220,22.0,33.0,5,-99.99,,,-99.99,1148.000000,,2013-06-10 20:32:00,
2013-06-10 14:42:00,93.0,16.0,-100.00,SSW,208,23.0,34.0,5,-99.99,,,-99.99,943.000000,,2013-06-10 20:42:00,
2013-06-10 14:52:00,93.0,17.0,-100.00,SSW,205,25.0,28.0,6,-99.99,,,-99.99,1052.000000,,2013-06-10 20:52:00,
2013-06-10 15:02:00,93.0,17.0,-100.00,South,188,22.0,31.0,6,-99.99,,,-99.99,1038.000000,,2013-06-10 21:02:00,
2013-06-10 15:12:00,93.0,15.0,-100.00,SSW,194,25.0,32.0,5,-99.99,,,-99.99,1002.000000,,2013-06-10 21:12:00,
2013-06-10 15:22:00,94.0,16.0,-100.00,SW,226,21.0,27.0,5,-99.99,,,-99.99,867.000000,,2013-06-10 21:22:00,
2013-06-10 15:33:00,92.0,15.0,-100.00,SSW,199,27.0,33.0,5,-99.99,,,-99.99,808.000000,,2013-06-10 21:33:00,
2013-06-10 15:42:00,92.0,15.0,-100.00,South,191,22.0,26.0,5,-99.99,,,-99.99,435.799988,,2013-06-10 21:42:00,
2013-06-10 15:53:00,93.0,14.0,-100.00,SSW,202,25.0,30.0,5,-99.99,,,-99.99,901.000000,,2013-06-10 21:53:00,
2013-06-10 16:02:00,94.0,15.0,-100.00,SSW,197,25.0,31.0,5,-99.99,,,-99.99,960.000000,,2013-06-10 22:02:00,
2013-06-10 16:12:00,94.0,15.0,-100.00,SSW,205,17.0,24.0,5,-99.99,,,-99.99,908.000000,,2013-06-10 22:12:00,
2013-06-10 16:22:00,93.0,16.0,-100.00,SSW,195,17.0,31.0,5,-99.99,,,-99.99,870.000000,,2013-06-10 22:22:00,
2013-06-10 16:33:00,93.0,14.0,-100.00,SSW,212,23.0,32.0,5,-99.99,,,-99.99,846.000000,,2013-06-10 22:33:00,
2013-06-10 16:42:00,93.0,14.0,-100.00,SSW,208,23.0,29.0,5,-99.99,,,-99.99,820.000000,,2013-06-10 22:42:00,
2013-06-10 16:52:00,93.0,14.0,-100.00,SSW,208,23.0,29.0,5,-99.99,,,-99.99,820.000000,,2013-06-10 22:52:00,
2013-06-10 17:02:00,93.0,14.0,-100.00,SSW,209,22.0,28.0,5,-99.99,,,-99.99,767.400024,,2013-06-10 23:02:00,
2013-06-10 17:12:00,93.0,13.0,-100.00,SSW,201,18.0,29.0,5,-99.99,,,-99.99,739.900024,,2013-06-10 23:12:00,
2013-06-10 17:22:00,93.0,13.0,-100.00,South,191,24.0,34.0,5,-99.99,,,-99.99,705.700012,,2013-06-10 23:22:00,
2013-06-10 17:32:00,93.0,15.0,-100.00,SSW,202,22.0,32.0,5,-99.99,,,-99.99,675.900024,,2013-06-10 23:32:00,
2013-06-10 17:42:00,93.0,14.0,-100.00,SSW,199,29.0,33.0,5,-99.99,,,-99.99,647.400024,,2013-06-10 23:42:00,
2013-06-10 17:52:00,93.0,12.0,-100.00,SSW,194,24.0,30.0,5,-99.99,,,-99.99,623.200012,,2013-06-10 23:52:00,
2013-06-10 18:02:00,93.0,12.0,-100.00,SSW,193,25.0,31.0,5,-99.99,,,-99.99,583.700012,,2013-06-11 00:02:00,
2013-06-10 18:12:00,93.0,12.0,-100.00,SSW,193,25.0,31.0,5,-99.99,,,-99.99,583.700012,,2013-06-11 00:12:00,
2013-06-10 18:21:00,92.0,13.0,-100.00,SSW,195,31.0,34.0,5,-99.99,,,-99.99,520.700012,,2013-06-11 00:21:00,
2013-06-10 18:32:00,92.0,12.0,-100.00,SSW,202,30.0,36.0,5,-99.99,,,-99.99,483.500000,,2013-06-11 00:32:00,
2013-06-10 18:42:00,92.0,13.0,-100.00,SSW,202,25.0,37.0,5,-99.99,,,-99.99,452.100006,,2013-06-11 00:42:00,
2013-06-10 18:52:00,92.0,15.0,-100.00,SSW,208,19.0,27.0,5,-99.99,,,-99.99,422.100006,,2013-06-11 00:52:00,
2013-06-10 19:02:00,91.0,12.0,-100.00,SSW,198,29.0,32.0,5,-99.99,,,-99.99,385.600006,,2013-06-11 01:02:00,
2013-06-10 19:12:00,91.0,13.0,-100.00,SSW,208,26.0,32.0,5,-99.99,,,-99.99,349.799988,,2013-06-11 01:12:00,
2013-06-10 19:21:00,91.0,13.0,-100.00,SSW,208,26.0,32.0,5,-99.99,,,-99.99,349.799988,,2013-06-11 01:21:00,
2013-06-10 19:32:00,90.0,13.0,-100.00,SSW,195,24.0,29.0,5,-99.99,,,-99.99,283.799988,,2013-06-11 01:32:00,
2013-06-10 19:42:00,90.0,12.0,-100.00,SSW,203,26.0,31.0,5,-99.99,,,-99.99,251.300003,,2013-06-11 01:42:00,
2013-06-10 19:52:00,89.0,13.0,-100.00,SW,222,18.0,25.0,5,-99.99,,,-99.99,220.199997,,2013-06-11 01:52:00,
2013-06-10 20:02:00,89.0,15.0,-100.00,SW,216,17.0,28.0,6,-99.99,,,-99.99,182.600006,,2013-06-11 02:02:00,
2013-06-10 20:12:00,88.0,14.0,-100.00,SW,216,18.0,27.0,6,-99.99,,,-99.99,150.199997,,2013-06-11 02:12:00,
2013-06-10 20:21:00,88.0,14.0,-100.00,SW,216,18.0,27.0,6,-99.99,,,-99.99,150.199997,,2013-06-11 02:21:00,
2013-06-10 20:32:00,87.0,14.0,-100.00,SW,215,20.0,23.0,6,-99.99,,,-99.99,88.599998,,2013-06-11 02:32:00,
2013-06-10 20:42:00,87.0,15.0,-100.00,SW,214,17.0,20.0,6,-99.99,,,-99.99,60.709999,,2013-06-11 02:42:00,
2013-06-10 20:52:00,86.0,16.0,-100.00,SSW,206,13.0,21.0,7,-99.99,,,-99.99,36.770000,,2013-06-11 02:52:00,
2013-06-10 21:02:00,85.0,15.0,-100.00,SSW,202,17.0,19.0,7,-99.99,,,-99.99,15.660000,,2013-06-11 03:02:00,
2013-06-10 21:12:00,84.0,16.0,-100.00,SSW,208,14.0,18.0,7,-99.99,,,-99.99,8.210000,,2013-06-11 03:12:00,
2013-06-10 21:21:00,85.0,16.0,-100.00,SSW,208,19.0,25.0,7,-99.99,,,-99.99,2.730000,,2013-06-11 03:21:00,
2013-06-10 21:32:00,84.0,16.0,-100.00,SSW,205,16.0,23.0,7,-99.99,,,-99.99,0.650000,,2013-06-11 03:32:00,
2013-06-10 21:42:00,83.0,16.0,-100.00,SSW,208,16.0,20.0,8,-99.99,,,-99.99,0.010000,,2013-06-11 03:42:00,
2013-06-10 21:53:00,83.0,18.0,-100.00,SW,214,16.0,20.0,8,-99.99,,,-99.99,0.000000,,2013-06-11 03:53:00,
2013-06-10 22:02:00,82.0,18.0,-100.00,SSW,212,12.0,16.0,9,-99.99,,,-99.99,0.000000,,2013-06-11 04:02:00,
2013-06-10 22:12:00,82.0,19.0,-100.00,SSW,212,15.0,17.0,9,-99.99,,,-99.99,0.000000,,2013-06-11 04:12:00,
2013-06-10 22:22:00,81.0,19.0,-100.00,SSW,205,13.0,16.0,9,-99.99,,,-99.99,0.000000,,2013-06-11 04:22:00,
2013-06-10 22:33:00,76.0,20.0,-100.00,South,175,10.0,11.0,11,-99.99,,,-99.99,0.000000,,2013-06-11 04:33:00,
2013-06-10 22:42:00,76.0,20.0,-100.00,South,175,10.0,11.0,11,-99.99,,,-99.99,0.000000,,2013-06-11 04:42:00,
2013-06-10 22:52:00,80.0,21.0,-100.00,SSW,202,12.0,17.0,10,-99.99,,,-99.99,0.000000,,2013-06-11 04:52:00,
2013-06-10 23:02:00,81.0,20.0,-100.00,SSW,198,17.0,19.0,10,-99.99,,,-99.99,0.000000,,2013-06-11 05:02:00,
2013-06-10 23:12:00,81.0,21.0,-100.00,SSW,198,22.0,31.0,10,-99.99,,,-99.99,0.000000,,2013-06-11 05:12:00,
2013-06-10 23:22:00,80.0,21.0,-100.00,South,190,14.0,20.0,11,-99.99,,,-99.99,0.000000,,2013-06-11 05:22:00,
2013-06-10 23:32:00,80.0,21.0,-100.00,South,181,16.0,19.0,11,-99.99,,,-99.99,0.000000,,2013-06-11 05:32:00,
2013-06-10 23:42:00,80.0,22.0,-100.00,South,184,16.0,25.0,11,-99.99,,,-99.99,0.000000,,2013-06-11 05:42:00,
2013-06-10 23:52:00,79.0,22.0,-100.00,South,176,14.0,18.0,11,-99.99,,,-99.99,0.000000,,2013-06-11 05:52:00,